Time;durP1;ratioP1;P1;durP2;ratioP2;P2;SDS_P1;SDS_P2;PMS_P1;PMS_P2;Temp;Humidity;BMP_temperature;BMP_pressure;BME280_temperature;BME280_humidity;BME280_pressure;Samples;Min_cycle;Max_cycle;Signal;HPM_P1;HPM_P2
2020/12/23 00:00:53;;;;;;;9.00;4.83;;;6.80;99.90;;;;;;4976063;28;20559;-66
2020/12/23 00:03:19;;;;;;;9.43;5.00;;;6.80;99.90;;;;;;4975734;28;20451;-68
2020/12/23 00:05:45;;;;;;;8.83;4.73;;;6.80;99.90;;;;;;4975511;28;20498;-66
2020/12/23 00:08:11;;;;;;;14.90;5.70;;;6.80;99.90;;;;;;4975620;28;20467;-65
2020/12/23 00:10:38;;;;;;;12.13;5.17;;;6.70;99.90;;;;;;4975158;28;20459;-66
2020/12/23 00:13:04;;;;;;;6.90;4.90;;;6.70;99.90;;;;;;4975727;28;20455;-68
2020/12/23 00:15:31;;;;;;;8.47;5.00;;;6.70;99.90;;;;;;4974339;28;20458;-67
2020/12/23 00:17:57;;;;;;;10.57;5.00;;;6.60;99.90;;;;;;4975363;28;20471;-69
2020/12/23 00:20:24;;;;;;;9.10;4.53;;;6.60;99.90;;;;;;4974850;28;20478;-71
2020/12/23 00:22:50;;;;;;;10.63;4.10;;;6.60;99.90;;;;;;4975106;28;20498;-68
2020/12/23 00:25:16;;;;;;;9.90;4.80;;;6.60;99.90;;;;;;4974550;28;20495;-71
2020/12/23 00:27:42;;;;;;;7.00;4.30;;;6.50;99.90;;;;;;4975325;28;20475;-67
2020/12/23 00:30:09;;;;;;;12.43;5.30;;;6.50;99.90;;;;;;4974448;28;20828;-71
2020/12/23 00:32:36;;;;;;;8.40;4.73;;;6.40;99.90;;;;;;4974771;28;20456;-71
2020/12/23 00:35:02;;;;;;;10.27;4.50;;;6.50;99.90;;;;;;4974332;28;20955;-66
2020/12/23 00:37:29;;;;;;;9.60;4.40;;;6.40;99.90;;;;;;4974420;28;21028;-66
2020/12/23 00:39:55;;;;;;;10.17;4.60;;;6.40;99.90;;;;;;4975611;28;20458;-67
2020/12/23 00:42:21;;;;;;;12.57;4.60;;;6.40;99.90;;;;;;4974677;28;20466;-68
2020/12/23 00:44:48;;;;;;;13.90;5.77;;;6.40;99.90;;;;;;4973909;28;20854;-66
2020/12/23 00:47:15;;;;;;;12.20;4.90;;;6.40;99.90;;;;;;4974416;28;20482;-70
2020/12/23 00:49:42;;;;;;;6.63;4.20;;;6.30;99.90;;;;;;5013849;23;20498;-71
2020/12/23 00:52:08;;;;;;;9.80;4.33;;;6.20;99.90;;;;;;4994274;28;20491;-71
2020/12/23 00:54:35;;;;;;;10.70;5.00;;;6.20;99.90;;;;;;4994817;28;20450;-71
2020/12/23 00:57:02;;;;;;;8.63;4.90;;;6.30;99.90;;;;;;4994533;28;20450;-71
2020/12/23 00:59:28;;;;;;;10.57;4.93;;;6.30;99.90;;;;;;4994576;28;20470;-71
2020/12/23 01:01:58;;;;;;;8.60;4.43;;;6.20;99.90;;;;;;4993995;28;20461;-72
2020/12/23 01:04:24;;;;;;;8.53;4.90;;;6.10;99.90;;;;;;4993467;28;20482;-72
2020/12/23 01:06:52;;;;;;;10.77;4.47;;;6.10;99.90;;;;;;4994302;28;20455;-71
2020/12/23 01:09:18;;;;;;;7.13;4.80;;;6.10;99.90;;;;;;4994035;28;20474;-71
2020/12/23 01:11:44;;;;;;;12.33;5.00;;;6.00;99.90;;;;;;4994139;28;20828;-72
2020/12/23 01:14:11;;;;;;;13.10;5.37;;;5.90;99.90;;;;;;4993882;28;20461;-73
2020/12/23 01:16:37;;;;;;;13.03;5.60;;;5.90;99.90;;;;;;4993508;28;20470;-72
2020/12/23 01:19:03;;;;;;;8.47;5.07;;;5.90;99.90;;;;;;4993782;28;20474;-72
2020/12/23 01:21:30;;;;;;;13.73;6.00;;;5.90;99.90;;;;;;4974179;28;20455;-72
2020/12/23 01:23:57;;;;;;;9.20;5.40;;;6.00;99.90;;;;;;4979136;28;20524;-71
2020/12/23 01:26:23;;;;;;;8.40;5.70;;;5.90;99.90;;;;;;4993761;28;20871;-71
2020/12/23 01:28:50;;;;;;;9.53;5.13;;;5.90;99.90;;;;;;4993788;28;20540;-71
2020/12/23 01:31:16;;;;;;;18.23;6.17;;;5.80;99.90;;;;;;4993797;28;20950;-72
2020/12/23 01:33:42;;;;;;;11.27;6.17;;;5.90;99.90;;;;;;4992659;28;20482;-72
2020/12/23 01:36:09;;;;;;;10.50;6.07;;;5.80;99.90;;;;;;4993447;28;20520;-71
2020/12/23 01:38:35;;;;;;;17.57;6.93;;;5.80;99.90;;;;;;4993588;28;20470;-71
2020/12/23 01:41:05;;;;;;;9.43;5.90;;;5.80;99.90;;;;;;4993529;28;20446;-71
2020/12/23 01:43:32;;;;;;;10.83;5.90;;;5.80;99.90;;;;;;4992881;28;20450;-72
2020/12/23 01:45:58;;;;;;;9.30;5.43;;;5.80;99.90;;;;;;4994224;28;20490;-73
2020/12/23 01:48:29;;;;;;;10.03;5.90;;;5.80;99.90;;;;;;4996454;28;20487;-73
2020/12/23 01:50:58;;;;;;;12.90;6.77;;;5.80;99.90;;;;;;4996274;28;20458;-73
2020/12/23 01:53:25;;;;;;;9.90;5.43;;;5.70;99.90;;;;;;4993907;28;20463;-73
2020/12/23 01:55:51;;;;;;;13.47;6.30;;;5.70;99.90;;;;;;4993304;28;20474;-73
2020/12/23 01:58:18;;;;;;;9.23;6.33;;;5.70;99.90;;;;;;4993239;28;20474;-71
2020/12/23 02:00:45;;;;;;;15.63;6.27;;;5.70;99.90;;;;;;4993296;28;20845;-73
2020/12/23 02:03:12;;;;;;;8.87;6.23;;;5.70;99.90;;;;;;4992945;28;20454;-73
2020/12/23 02:05:39;;;;;;;18.50;5.90;;;5.60;99.90;;;;;;4992023;28;20482;-73
2020/12/23 02:08:05;;;;;;;13.43;6.03;;;5.60;99.90;;;;;;4994897;28;20481;-73
2020/12/23 02:10:32;;;;;;;12.67;6.60;;;5.70;99.90;;;;;;5001411;28;20447;-73
2020/12/23 02:12:59;;;;;;;13.07;6.23;;;5.60;99.90;;;;;;4999907;28;20455;-73
2020/12/23 02:15:27;;;;;;;11.10;7.57;;;5.60;99.90;;;;;;4995303;28;20458;-73
2020/12/23 02:17:54;;;;;;;9.77;6.50;;;5.50;99.90;;;;;;4993524;28;20922;-73
2020/12/23 02:20:20;;;;;;;12.80;7.43;;;5.50;99.90;;;;;;4993141;28;20486;-71
2020/12/23 02:22:47;;;;;;;14.10;6.27;;;5.50;99.90;;;;;;4992404;28;20450;-71
2020/12/23 02:25:15;;;;;;;17.87;7.07;;;5.40;99.90;;;;;;4991959;28;20577;-72
2020/12/23 02:27:42;;;;;;;11.63;6.83;;;5.40;99.90;;;;;;4992240;28;20467;-72
2020/12/23 02:30:11;;;;;;;13.70;7.73;;;5.40;99.90;;;;;;4992449;28;20455;-71
2020/12/23 02:32:38;;;;;;;15.83;7.83;;;5.40;99.90;;;;;;4992402;28;20533;-73
2020/12/23 02:35:05;;;;;;;12.57;6.63;;;5.40;99.90;;;;;;4992286;28;20447;-73
2020/12/23 02:37:32;;;;;;;14.10;7.47;;;5.50;99.90;;;;;;4992197;28;20447;-73
2020/12/23 02:39:59;;;;;;;15.80;7.77;;;5.40;99.90;;;;;;4992752;28;20524;-73
2020/12/23 02:42:25;;;;;;;12.20;6.90;;;5.40;99.90;;;;;;4992906;28;20450;-73
2020/12/23 02:44:54;;;;;;;18.50;7.23;;;5.50;99.90;;;;;;4991673;28;20565;-73
2020/12/23 02:47:20;;;;;;;14.43;7.00;;;5.40;99.90;;;;;;4992971;28;20462;-74
2020/12/23 02:49:47;;;;;;;10.60;6.83;;;5.40;99.90;;;;;;4992552;28;20517;-73
2020/12/23 02:52:13;;;;;;;20.57;8.30;;;5.50;99.90;;;;;;4992632;28;20447;-73
2020/12/23 02:54:40;;;;;;;15.40;8.63;;;5.30;99.90;;;;;;4991673;28;20545;-73
2020/12/23 02:57:08;;;;;;;13.67;8.27;;;5.40;99.90;;;;;;4991910;28;20574;-73
2020/12/23 02:59:35;;;;;;;17.03;7.83;;;5.30;99.90;;;;;;4992497;28;20497;-73
2020/12/23 03:02:01;;;;;;;13.83;7.70;;;5.30;99.90;;;;;;4991703;28;20462;-72
2020/12/23 03:04:28;;;;;;;16.60;7.43;;;5.30;99.90;;;;;;4992091;28;20453;-73
2020/12/23 03:06:54;;;;;;;17.13;7.53;;;5.20;99.90;;;;;;4992174;28;20821;-73
2020/12/23 03:09:20;;;;;;;13.60;7.57;;;5.20;99.90;;;;;;4992705;28;20474;-73
2020/12/23 03:11:47;;;;;;;13.73;7.63;;;5.20;99.90;;;;;;4992527;28;20458;-73
2020/12/23 03:14:14;;;;;;;20.77;8.63;;;5.10;99.90;;;;;;4991992;28;20457;-72
2020/12/23 03:16:40;;;;;;;12.23;7.87;;;5.10;99.90;;;;;;4991282;28;20450;-73
2020/12/23 03:19:07;;;;;;;13.83;8.07;;;5.10;99.90;;;;;;4992176;28;20470;-71
2020/12/23 03:21:33;;;;;;;12.43;7.30;;;5.10;99.90;;;;;;4991481;28;20958;-72
2020/12/23 03:24:00;;;;;;;15.77;8.60;;;5.10;99.90;;;;;;4991639;28;20454;-71
2020/12/23 03:26:26;;;;;;;18.13;8.40;;;5.00;99.90;;;;;;4994286;28;20489;-72
2020/12/23 03:28:52;;;;;;;17.50;8.40;;;5.00;99.90;;;;;;4995909;28;20470;-72
2020/12/23 03:31:20;;;;;;;20.13;8.37;;;5.00;99.90;;;;;;4995257;28;20462;-72
2020/12/23 03:33:46;;;;;;;13.33;8.53;;;5.10;99.90;;;;;;4995327;28;20446;-72
2020/12/23 03:36:12;;;;;;;15.20;8.50;;;5.10;99.90;;;;;;4995093;28;20512;-73
2020/12/23 03:38:39;;;;;;;20.13;9.23;;;5.00;99.90;;;;;;4995505;28;20474;-73
2020/12/23 03:41:05;;;;;;;17.03;8.53;;;4.90;99.90;;;;;;4995229;28;20454;-73
2020/12/23 03:43:31;;;;;;;16.23;7.70;;;5.00;99.90;;;;;;4994977;28;20450;-72
2020/12/23 03:45:58;;;;;;;14.70;8.60;;;5.00;99.90;;;;;;4994998;28;20488;-73
2020/12/23 03:48:25;;;;;;;15.97;9.37;;;5.00;99.90;;;;;;4995001;28;21012;-73
2020/12/23 03:50:51;;;;;;;12.40;8.40;;;5.00;99.90;;;;;;4995015;28;20458;-73
2020/12/23 03:53:18;;;;;;;14.50;8.80;;;5.00;99.90;;;;;;4995250;28;20450;-73
2020/12/23 03:55:44;;;;;;;15.20;8.30;;;4.90;99.90;;;;;;4994780;28;20458;-73
2020/12/23 03:58:10;;;;;;;15.50;9.47;;;4.90;99.90;;;;;;4993848;28;20541;-72
2020/12/23 04:00:37;;;;;;;10.03;8.60;;;4.90;99.90;;;;;;4994273;28;20454;-72
2020/12/23 04:03:03;;;;;;;16.50;8.57;;;4.90;99.90;;;;;;4994814;28;20870;-72
2020/12/23 04:05:30;;;;;;;18.27;10.83;;;4.90;99.90;;;;;;4994827;28;20544;-73
2020/12/23 04:07:56;;;;;;;18.67;11.50;;;4.70;99.90;;;;;;4995037;28;20470;-72
2020/12/23 04:10:23;;;;;;;17.87;11.00;;;4.60;99.90;;;;;;4995252;28;20454;-72
2020/12/23 04:12:49;;;;;;;15.20;10.37;;;4.60;99.90;;;;;;4995080;28;20459;-73
2020/12/23 04:15:16;;;;;;;17.07;10.13;;;4.60;99.90;;;;;;4994933;28;20443;-72
2020/12/23 04:17:42;;;;;;;25.27;11.63;;;4.50;99.90;;;;;;4995120;28;20454;-72
2020/12/23 04:20:09;;;;;;;21.40;11.17;;;4.50;99.90;;;;;;4994728;28;20458;-72
2020/12/23 04:22:36;;;;;;;12.93;9.97;;;4.50;99.90;;;;;;4994776;28;20946;-72
2020/12/23 04:25:05;;;;;;;25.67;12.40;;;4.60;99.90;;;;;;4994175;28;20529;-71
2020/12/23 04:27:32;;;;;;;17.40;10.47;;;4.50;99.90;;;;;;4994308;28;20520;-72
2020/12/23 04:29:59;;;;;;;18.63;11.50;;;4.40;99.90;;;;;;4994294;28;20458;-72
2020/12/23 04:32:25;;;;;;;14.80;11.17;;;4.40;99.90;;;;;;4994103;28;20508;-72
2020/12/23 04:34:52;;;;;;;15.43;12.87;;;4.40;99.90;;;;;;4993485;28;20439;-72
2020/12/23 04:37:18;;;;;;;19.10;12.73;;;4.30;99.90;;;;;;4993624;28;20466;-72
2020/12/23 04:39:45;;;;;;;19.50;13.60;;;4.30;99.90;;;;;;4994274;28;20837;-72
2020/12/23 04:42:12;;;;;;;17.77;13.23;;;4.30;99.90;;;;;;4993872;28;20462;-72
2020/12/23 04:44:39;;;;;;;17.80;13.70;;;4.20;99.90;;;;;;4993564;28;20461;-72
2020/12/23 04:47:09;;;;;;;38.87;17.57;;;4.20;99.90;;;;;;4994027;28;20459;-72
2020/12/23 04:49:37;;;;;;;56.87;21.00;;;4.00;99.90;;;;;;4993852;28;20478;-72
2020/12/23 04:52:06;;;;;;;63.27;21.87;;;3.90;99.90;;;;;;4994562;28;20458;-72
2020/12/23 04:54:33;;;;;;;71.93;22.13;;;3.80;99.90;;;;;;4994011;28;20945;-72
2020/12/23 04:57:01;;;;;;;62.50;21.60;;;3.70;99.90;;;;;;4994067;28;20455;-72
2020/12/23 04:59:28;;;;;;;102.50;24.50;;;3.60;99.90;;;;;;4994148;28;20832;-71
2020/12/23 05:01:54;;;;;;;67.87;21.00;;;3.50;99.90;;;;;;4994110;28;20453;-72
2020/12/23 05:04:21;;;;;;;99.90;26.30;;;3.40;99.90;;;;;;4994210;28;20470;-72
2020/12/23 05:06:48;;;;;;;125.57;28.53;;;3.30;99.90;;;;;;4996514;28;20485;-73
2020/12/23 05:09:14;;;;;;;93.07;26.60;;;3.40;99.90;;;;;;4996206;28;20535;-72
2020/12/23 05:11:40;;;;;;;94.37;26.43;;;3.30;99.90;;;;;;4993737;28;20451;-72
2020/12/23 05:14:10;;;;;;;127.37;32.43;;;3.30;99.90;;;;;;4993460;28;20458;-72
2020/12/23 05:16:37;;;;;;;110.53;29.17;;;3.30;99.90;;;;;;4993424;28;20457;-72
2020/12/23 05:19:03;;;;;;;115.93;30.47;;;3.40;99.90;;;;;;4993409;28;20474;-72
2020/12/23 05:21:30;;;;;;;151.50;31.90;;;3.40;99.90;;;;;;4993934;28;20550;-72
2020/12/23 05:23:57;;;;;;;207.53;35.30;;;3.40;99.90;;;;;;4993660;28;20509;-72
2020/12/23 05:26:26;;;;;;;209.03;37.00;;;3.50;99.90;;;;;;4993340;28;20493;-73
2020/12/23 05:28:53;;;;;;;142.00;35.10;;;3.50;99.90;;;;;;4993852;28;20481;-73
2020/12/23 05:31:21;;;;;;;145.10;28.37;;;3.60;99.90;;;;;;4993396;28;20973;-73
2020/12/23 05:33:49;;;;;;;232.23;41.53;;;3.80;99.90;;;;;;4993516;28;20512;-73
2020/12/23 05:36:17;;;;;;;174.10;37.90;;;3.80;99.90;;;;;;4993688;28;20462;-73
2020/12/23 05:38:44;;;;;;;155.80;36.63;;;4.00;99.90;;;;;;4993156;28;20893;-73
2020/12/23 05:41:12;;;;;;;149.90;33.90;;;4.20;99.90;;;;;;4993400;28;20462;-73
2020/12/23 05:43:38;;;;;;;184.27;36.73;;;4.30;99.90;;;;;;4993351;28;20512;-73
2020/12/23 05:46:07;;;;;;;199.97;37.40;;;4.20;99.90;;;;;;4993137;28;20478;-73
2020/12/23 05:48:35;;;;;;;172.97;35.57;;;4.40;99.90;;;;;;4992694;28;20490;-74
2020/12/23 05:51:04;;;;;;;197.37;38.70;;;4.40;99.90;;;;;;4992558;28;20509;-73
2020/12/23 05:53:33;;;;;;;174.93;37.70;;;4.30;99.90;;;;;;4992919;28;20485;-74
2020/12/23 05:56:00;;;;;;;149.07;35.93;;;4.50;99.90;;;;;;4992810;28;20514;-73
2020/12/23 05:58:29;;;;;;;206.53;41.77;;;4.60;99.90;;;;;;4992760;28;20481;-74
2020/12/23 06:00:57;;;;;;;199.00;40.13;;;4.50;99.90;;;;;;4992641;28;20462;-74
2020/12/23 06:03:29;;;;;;;215.77;38.50;;;4.50;99.90;;;;;;4992708;28;20457;-74
2020/12/23 06:05:59;;;;;;;243.80;46.70;;;4.60;99.90;;;;;;4992495;28;21020;-73
2020/12/23 06:08:33;;;;;;;198.13;39.57;;;4.70;99.90;;;;;;4992755;28;20482;-73
2020/12/23 06:11:29;;;;;;;286.83;48.53;;;4.70;99.90;;;;;;4992127;28;20474;-73
2020/12/23 06:14:14;;;;;;;176.00;39.57;;;4.50;99.90;;;;;;4992684;28;20455;-73
2020/12/23 06:16:43;;;;;;;155.23;37.00;;;4.70;99.90;;;;;;4991498;28;20551;-73
2020/12/23 06:19:10;;;;;;;219.90;46.20;;;4.80;99.90;;;;;;4992733;28;20474;-74
2020/12/23 06:21:38;;;;;;;142.03;36.13;;;4.80;99.90;;;;;;4992574;28;20447;-73
2020/12/23 06:24:08;;;;;;;183.30;40.13;;;4.90;99.90;;;;;;4992878;28;20442;-73
2020/12/23 06:26:36;;;;;;;101.83;33.20;;;4.70;99.90;;;;;;4993017;28;20577;-73
2020/12/23 06:29:04;;;;;;;182.07;37.27;;;4.30;99.90;;;;;;4992981;28;20466;-71
2020/12/23 06:31:32;;;;;;;234.80;44.37;;;3.90;99.90;;;;;;4993475;28;20455;-72
2020/12/23 06:33:59;;;;;;;138.27;35.60;;;4.00;99.90;;;;;;4992859;28;20454;-75
2020/12/23 06:36:33;;;;;;;167.90;38.70;;;4.20;99.90;;;;;;4999422;28;20455;-76
2020/12/23 06:39:30;;;;;;;214.30;44.50;;;4.00;99.90;;;;;;5008981;28;20473;-75
2020/12/23 06:42:24;;;;;;;120.63;30.13;;;4.00;99.90;;;;;;5010481;28;20430;-72
2020/12/23 06:45:02;;;;;;;134.90;38.10;;;4.10;99.90;;;;;;5005127;28;20450;-72
2020/12/23 06:47:30;;;;;;;200.77;40.43;;;4.10;99.90;;;;;;4992682;28;20457;-72
2020/12/23 06:49:58;;;;;;;177.93;44.87;;;3.80;99.90;;;;;;5014517;23;20478;-69
2020/12/23 06:52:32;;;;;;;251.30;51.27;;;3.60;99.90;;;;;;4987815;28;20477;-68
2020/12/23 06:55:01;;;;;;;169.00;35.70;;;3.60;99.90;;;;;;4990877;28;20509;-68
2020/12/23 06:57:49;;;;;;;178.87;36.07;;;3.60;99.90;;;;;;4992053;28;21013;-68
2020/12/23 07:00:32;;;;;;;158.07;44.33;;;3.60;99.90;;;;;;4992394;28;20474;-68
2020/12/23 07:03:00;;;;;;;152.70;37.77;;;3.60;99.90;;;;;;4994947;28;20462;-68
2020/12/23 07:05:41;;;;;;;113.63;38.10;;;3.60;99.90;;;;;;4996667;28;20489;-68
2020/12/23 07:08:08;;;;;;;135.47;37.40;;;3.80;99.90;;;;;;4995817;28;20868;-68
2020/12/23 07:10:36;;;;;;;123.53;37.77;;;3.80;99.90;;;;;;5010499;28;20481;-69
2020/12/23 07:13:05;;;;;;;127.57;38.27;;;3.80;99.90;;;;;;4996951;28;20470;-68
2020/12/23 07:15:32;;;;;;;140.80;40.17;;;3.90;99.90;;;;;;5008912;28;20472;-69
2020/12/23 07:18:02;;;;;;;147.37;43.47;;;4.00;99.90;;;;;;5013022;28;20453;-68
2020/12/23 07:20:32;;;;;;;192.50;39.87;;;3.90;99.90;;;;;;5011714;28;20527;-68
2020/12/23 07:23:04;;;;;;;234.90;46.10;;;3.90;99.90;;;;;;5006673;28;20462;-68
2020/12/23 07:25:35;;;;;;;168.20;41.17;;;3.90;99.90;;;;;;4994568;28;20477;-69
2020/12/23 07:28:07;;;;;;;173.73;44.17;;;4.00;99.90;;;;;;4994772;28;20477;-68
2020/12/23 07:30:36;;;;;;;102.53;35.33;;;3.90;99.90;;;;;;5001610;28;20485;-69
2020/12/23 07:33:05;;;;;;;157.40;41.13;;;4.00;99.90;;;;;;4995244;28;20447;-68
2020/12/23 07:35:32;;;;;;;124.30;43.10;;;4.00;99.90;;;;;;4994142;28;20454;-67
2020/12/23 07:38:00;;;;;;;22.73;9.40;;;4.00;99.90;;;;;;4994020;28;20458;-80
2020/12/23 07:40:27;;;;;;;11.83;7.90;;;13.00;99.90;;;;;;4995834;28;20477;-69
2020/12/23 07:42:55;;;;;;;17.47;9.33;;;19.50;99.90;;;;;;4995542;28;20450;-68
2020/12/23 07:45:23;;;;;;;16.67;10.23;;;21.30;99.90;;;;;;4994287;28;20848;-68
2020/12/23 07:47:54;;;;;;;18.23;10.00;;;21.90;99.90;;;;;;4994846;28;20458;-70
2020/12/23 07:50:21;;;;;;;14.67;9.03;;;22.20;99.90;;;;;;4994356;28;20493;-70
2020/12/23 07:52:47;;;;;;;15.37;9.57;;;23.10;99.90;;;;;;4993853;28;21099;-69
2020/12/23 07:55:14;;;;;;;11.03;8.30;;;23.40;99.90;;;;;;4994704;28;20446;-70
2020/12/23 07:57:40;;;;;;;16.80;7.57;;;23.20;99.90;;;;;;4994878;28;20528;-70
2020/12/23 08:00:08;;;;;;;10.10;6.60;;;24.10;99.90;;;;;;4995065;28;20474;-69
2020/12/23 08:02:35;;;;;;;12.37;7.47;;;24.00;99.90;;;;;;4994811;28;20454;-68
2020/12/23 08:05:03;;;;;;;8.10;6.70;;;22.60;99.90;;;;;;4994712;28;20447;-68
2020/12/23 08:07:29;;;;;;;9.33;6.27;;;21.20;99.90;;;;;;4994015;28;20460;-69
2020/12/23 08:09:55;;;;;;;6.70;5.37;;;19.70;99.90;;;;;;4994516;28;20458;-69
2020/12/23 08:12:22;;;;;;;7.20;4.90;;;19.00;99.90;;;;;;4993555;28;20454;-69
2020/12/23 08:14:48;;;;;;;8.20;6.23;;;19.30;99.90;;;;;;4995026;28;20457;-69
2020/12/23 08:17:21;;;;;;;5.63;4.50;;;19.80;99.90;;;;;;4994491;28;20815;-69
2020/12/23 08:20:02;;;;;;;8.33;4.90;;;20.20;99.90;;;;;;4995020;28;20450;-68
2020/12/23 08:22:28;;;;;;;185.20;31.10;;;20.40;99.90;;;;;;4995169;28;20498;-69
2020/12/23 08:25:01;;;;;;;103.90;29.20;;;8.80;99.90;;;;;;4996503;28;20665;-69
2020/12/23 08:27:28;;;;;;;239.33;38.00;;;5.10;99.90;;;;;;4996708;28;20942;-68
2020/12/23 08:29:55;;;;;;;199.57;35.73;;;4.10;99.90;;;;;;4997224;28;20958;-66
2020/12/23 08:32:26;;;;;;;160.13;32.60;;;3.70;99.90;;;;;;4996040;28;20450;-68
2020/12/23 08:34:54;;;;;;;235.23;41.90;;;3.50;99.90;;;;;;4995887;28;20446;-70
2020/12/23 08:37:24;;;;;;;242.83;42.03;;;3.50;99.90;;;;;;4995913;28;20840;-69
2020/12/23 08:39:54;;;;;;;108.47;27.80;;;3.20;99.90;;;;;;4994562;28;20455;-64
2020/12/23 08:42:22;;;;;;;151.90;33.10;;;3.10;99.90;;;;;;5003884;28;20465;-65
2020/12/23 08:44:50;;;;;;;122.07;33.50;;;3.00;99.90;;;;;;4996608;28;20482;-65
2020/12/23 08:47:21;;;;;;;85.30;32.47;;;3.10;99.90;;;;;;4994378;28;20446;-65
2020/12/23 08:49:48;;;;;;;99.00;32.40;;;3.10;99.90;;;;;;4994282;28;20454;-65
2020/12/23 08:52:20;;;;;;;135.27;32.73;;;3.10;99.90;;;;;;5001511;28;20952;-64
2020/12/23 08:54:48;;;;;;;64.17;28.53;;;2.80;99.90;;;;;;5004486;28;20508;-65
2020/12/23 08:57:16;;;;;;;82.20;26.73;;;2.90;99.90;;;;;;4993767;28;20451;-65
2020/12/23 08:59:43;;;;;;;111.47;31.00;;;3.00;99.90;;;;;;4993855;28;20529;-65
2020/12/23 09:02:11;;;;;;;164.77;34.67;;;2.90;99.90;;;;;;4993590;28;20980;-64
2020/12/23 09:04:37;;;;;;;141.43;32.87;;;2.90;99.90;;;;;;4993745;28;20870;-65
2020/12/23 09:07:04;;;;;;;138.63;35.17;;;2.90;99.90;;;;;;4994112;28;20486;-65
2020/12/23 09:09:31;;;;;;;173.83;38.13;;;3.00;99.90;;;;;;4993500;28;20541;-64
2020/12/23 09:11:58;;;;;;;245.57;40.70;;;3.00;99.90;;;;;;4993520;28;21023;-68
2020/12/23 09:14:31;;;;;;;217.50;40.60;;;2.90;99.90;;;;;;4993025;28;20454;-63
2020/12/23 09:17:03;;;;;;;152.70;36.00;;;3.10;99.90;;;;;;4993791;28;20751;-64
2020/12/23 09:19:46;;;;;;;143.70;36.03;;;3.20;99.90;;;;;;4993331;28;20451;-64
2020/12/23 09:22:22;;;;;;;201.07;39.80;;;3.40;99.90;;;;;;4993421;28;20458;-64
2020/12/23 09:24:49;;;;;;;139.77;35.83;;;3.40;99.90;;;;;;4992579;28;20453;-64
2020/12/23 09:27:23;;;;;;;117.47;34.20;;;3.70;99.90;;;;;;4992550;28;20482;-64
2020/12/23 09:29:50;;;;;;;105.63;31.97;;;3.80;99.90;;;;;;4992791;28;20455;-63
2020/12/23 09:32:17;;;;;;;18.50;10.63;;;3.90;99.90;;;;;;4990773;28;20462;-65
2020/12/23 09:34:43;;;;;;;120.40;31.03;;;7.60;99.90;;;;;;4992452;28;22574;-64
2020/12/23 09:37:10;;;;;;;173.57;41.27;;;5.70;99.90;;;;;;4992849;28;20450;-64
2020/12/23 09:39:37;;;;;;;184.67;43.90;;;4.40;99.90;;;;;;4993294;28;20455;-64
2020/12/23 09:42:06;;;;;;;181.90;44.80;;;4.30;99.90;;;;;;4992338;28;20474;-64
2020/12/23 09:44:34;;;;;;;99.33;35.40;;;4.40;99.90;;;;;;4992201;28;20450;-64
2020/12/23 09:47:01;;;;;;;134.77;37.23;;;4.50;99.90;;;;;;4992305;28;20486;-65
2020/12/23 09:49:28;;;;;;;99.97;28.30;;;4.60;99.90;;;;;;4992836;28;20966;-64
2020/12/23 09:51:54;;;;;;;104.37;27.63;;;4.50;99.90;;;;;;4991954;28;20986;-64
2020/12/23 09:54:21;;;;;;;102.03;29.90;;;4.50;99.90;;;;;;4992993;28;20458;-64
2020/12/23 09:56:49;;;;;;;56.13;20.70;;;4.60;99.90;;;;;;4994039;28;20492;-64
2020/12/23 09:59:16;;;;;;;67.67;22.57;;;4.70;99.90;;;;;;4993177;28;20458;-64
2020/12/23 10:01:42;;;;;;;62.17;20.93;;;4.80;99.90;;;;;;4990272;28;20519;-64
2020/12/23 10:04:09;;;;;;;61.23;18.97;;;4.80;99.90;;;;;;4975008;28;21062;-64
2020/12/23 10:06:35;;;;;;;86.67;26.13;;;4.90;99.90;;;;;;4991937;28;21017;-64
2020/12/23 10:09:01;;;;;;;69.67;23.10;;;5.00;99.90;;;;;;4992721;28;20463;-64
2020/12/23 10:11:28;;;;;;;85.67;26.47;;;5.10;99.90;;;;;;4992264;28;20476;-64
2020/12/23 10:13:55;;;;;;;91.67;27.43;;;5.30;99.90;;;;;;4992865;28;20868;-64
2020/12/23 10:16:22;;;;;;;38.37;19.47;;;5.40;99.90;;;;;;4993260;28;20446;-64
2020/12/23 10:18:48;;;;;;;48.47;18.93;;;5.60;99.90;;;;;;4992364;28;20451;-64
2020/12/23 10:21:15;;;;;;;82.73;21.97;;;5.60;99.90;;;;;;4992812;28;20493;-64
2020/12/23 10:23:41;;;;;;;53.97;20.47;;;5.70;99.90;;;;;;4992297;28;20447;-65
2020/12/23 10:26:07;;;;;;;78.43;23.40;;;6.00;99.90;;;;;;4992838;28;20482;-64
2020/12/23 10:28:33;;;;;;;79.63;24.43;;;5.90;99.90;;;;;;4992666;28;20450;-65
2020/12/23 10:31:04;;;;;;;63.93;20.13;;;6.10;99.90;;;;;;4992493;28;20541;-64
2020/12/23 10:33:34;;;;;;;44.77;19.60;;;6.30;99.90;;;;;;4992226;28;20518;-64
2020/12/23 10:36:00;;;;;;;37.93;21.20;;;6.30;99.90;;;;;;4994627;28;20546;-65
2020/12/23 10:38:28;;;;;;;35.37;20.53;;;6.60;99.90;;;;;;4997072;28;20450;-64
2020/12/23 10:40:55;;;;;;;36.00;20.40;;;6.70;99.90;;;;;;4996565;28;20470;-64
2020/12/23 10:43:21;;;;;;;31.60;20.83;;;6.80;99.90;;;;;;4996665;28;20827;-65
2020/12/23 10:45:47;;;;;;;28.27;17.53;;;6.90;99.90;;;;;;4996058;28;20490;-64
2020/12/23 10:48:14;;;;;;;31.77;18.97;;;6.80;99.90;;;;;;4996225;28;20880;-65
2020/12/23 10:50:41;;;;;;;29.70;18.80;;;6.90;99.90;;;;;;4996629;28;20474;-64
2020/12/23 10:53:07;;;;;;;37.03;20.80;;;6.90;99.90;;;;;;4996531;28;20461;-64
2020/12/23 10:55:33;;;;;;;38.00;20.97;;;6.80;99.90;;;;;;4996049;28;20942;-65
2020/12/23 10:57:59;;;;;;;38.20;24.23;;;6.80;99.90;;;;;;4996279;28;20450;-64
2020/12/23 11:00:26;;;;;;;39.13;24.47;;;6.80;99.90;;;;;;4996564;28;20472;-65
2020/12/23 11:02:52;;;;;;;32.07;22.03;;;6.70;99.90;;;;;;4995888;28;20466;-67
2020/12/23 11:05:19;;;;;;;40.33;23.97;;;6.70;99.90;;;;;;4995884;28;20450;-66
2020/12/23 11:07:46;;;;;;;33.23;22.40;;;6.70;99.90;;;;;;4995850;28;20457;-65
2020/12/23 11:10:12;;;;;;;31.60;20.53;;;6.70;99.90;;;;;;4996314;28;20485;-64
2020/12/23 11:12:39;;;;;;;25.17;19.57;;;6.70;99.90;;;;;;4994558;28;20464;-65
2020/12/23 11:15:05;;;;;;;34.00;22.97;;;6.60;99.90;;;;;;4995446;28;20455;-64
2020/12/23 11:17:32;;;;;;;32.03;20.97;;;6.50;99.90;;;;;;4995852;28;20462;-64
2020/12/23 11:19:58;;;;;;;29.63;20.63;;;6.60;99.90;;;;;;4996340;28;20489;-66
2020/12/23 11:22:24;;;;;;;33.00;21.17;;;6.70;99.90;;;;;;4995620;28;20460;-65
2020/12/23 11:24:51;;;;;;;25.40;19.30;;;6.60;99.90;;;;;;4995915;28;20456;-66
2020/12/23 11:27:18;;;;;;;28.13;20.30;;;6.60;99.90;;;;;;4995660;28;20872;-65
2020/12/23 11:29:44;;;;;;;23.10;19.00;;;6.60;99.90;;;;;;4995381;28;20553;-64
2020/12/23 11:32:10;;;;;;;25.80;19.97;;;6.60;99.90;;;;;;4995725;28;20500;-65
2020/12/23 11:34:37;;;;;;;22.50;18.77;;;6.60;99.90;;;;;;4995707;28;20446;-66
2020/12/23 11:37:03;;;;;;;22.77;17.33;;;6.60;99.90;;;;;;4995643;28;20454;-66
2020/12/23 11:39:29;;;;;;;20.60;18.20;;;6.70;99.90;;;;;;4995781;28;20450;-64
2020/12/23 11:41:57;;;;;;;23.47;18.83;;;6.50;99.90;;;;;;4994348;28;20478;-63
2020/12/23 11:44:25;;;;;;;24.30;19.10;;;6.50;99.90;;;;;;4994942;28;20513;-63
2020/12/23 11:46:51;;;;;;;23.70;19.60;;;6.40;99.90;;;;;;4998489;28;20747;-64
2020/12/23 11:49:17;;;;;;;22.37;18.93;;;6.50;99.90;;;;;;5001044;28;20541;-64
2020/12/23 11:51:47;;;;;;;24.70;20.70;;;6.50;99.90;;;;;;4995122;28;20537;-66
2020/12/23 11:54:13;;;;;;;20.60;17.97;;;6.50;99.90;;;;;;4995340;28;20473;-64
2020/12/23 11:56:40;;;;;;;22.87;19.07;;;6.50;99.90;;;;;;4994120;28;20447;-65
2020/12/23 11:59:07;;;;;;;20.70;17.80;;;6.40;99.90;;;;;;4994971;28;20938;-64
2020/12/23 12:01:33;;;;;;;22.10;18.73;;;6.40;99.90;;;;;;4994988;28;20478;-65
2020/12/23 12:03:59;;;;;;;24.00;20.00;;;6.40;99.90;;;;;;4995628;28;20454;-65
2020/12/23 12:06:26;;;;;;;21.07;18.93;;;6.40;99.90;;;;;;4998345;28;20485;-64
2020/12/23 12:08:52;;;;;;;22.07;19.53;;;6.40;99.90;;;;;;4995837;28;20968;-66
2020/12/23 12:11:18;;;;;;;20.70;18.60;;;6.40;99.90;;;;;;4995662;28;20474;-64
2020/12/23 12:13:45;;;;;;;20.03;18.10;;;6.30;99.90;;;;;;4996356;28;21278;-65
2020/12/23 12:16:13;;;;;;;19.13;17.10;;;6.30;99.90;;;;;;4996503;28;20446;-65
2020/12/23 12:18:40;;;;;;;20.30;18.10;;;6.30;99.90;;;;;;4995213;28;20463;-64
2020/12/23 12:21:06;;;;;;;21.97;17.70;;;6.30;99.90;;;;;;4995151;28;20536;-64
2020/12/23 12:23:33;;;;;;;19.50;17.30;;;6.40;99.90;;;;;;4994685;28;20454;-65
2020/12/23 12:25:59;;;;;;;20.60;18.60;;;6.40;99.90;;;;;;4994640;28;20992;-66
2020/12/23 12:28:25;;;;;;;22.43;19.93;;;6.30;99.90;;;;;;4994087;28;20509;-65
2020/12/23 12:30:52;;;;;;;22.40;18.33;;;6.30;99.90;;;;;;4997051;28;20477;-64
2020/12/23 12:33:19;;;;;;;20.90;18.90;;;6.40;99.90;;;;;;4995007;28;20462;-65
2020/12/23 12:35:45;;;;;;;21.90;19.70;;;6.20;99.90;;;;;;4993760;28;20458;-65
2020/12/23 12:38:11;;;;;;;22.30;20.30;;;6.20;99.90;;;;;;4996687;28;20451;-64
2020/12/23 12:40:38;;;;;;;19.83;17.73;;;6.20;99.90;;;;;;4998238;28;21000;-66